createdAt,value
2023-04-09T00:00:45.211Z,58.35
2023-04-09T00:03:12.740Z,58.33
2023-04-09T00:05:41.008Z,59.40
2023-04-09T00:08:08.265Z,58.47
2023-04-09T00:10:35.672Z,71.68
2023-04-09T00:13:02.877Z,66.30
2023-04-09T00:15:31.718Z,61.72
2023-04-09T00:18:00.043Z,59.10
2023-04-09T00:20:27.442Z,58.92
2023-04-09T00:22:55.675Z,58.65
2023-04-09T00:25:22.948Z,97.18
2023-04-09T00:27:50.450Z,79.93
2023-04-09T00:30:17.678Z,58.95
2023-04-09T00:32:44.967Z,60.83
2023-04-09T00:35:12.616Z,64.22
2023-04-09T00:37:40.044Z,64.63
2023-04-09T00:40:07.771Z,62.15
2023-04-09T00:42:36.444Z,67.55
2023-04-09T00:45:05.323Z,63.67
2023-04-09T00:47:33.559Z,66.88
2023-04-09T00:50:01.769Z,63.85
2023-04-09T00:52:31.170Z,66.55
2023-04-09T00:55:01.026Z,68.00
2023-04-09T00:57:29.860Z,68.70
2023-04-09T00:59:57.033Z,62.78
2023-04-09T01:02:24.335Z,62.97
2023-04-09T01:04:51.957Z,60.55
2023-04-09T01:07:59.772Z,62.90
2023-04-09T01:10:52.676Z,68.13
2023-04-09T01:13:37.659Z,67.68
2023-04-09T01:16:06.230Z,69.13
2023-04-09T01:18:44.243Z,77.78
2023-04-09T01:21:19.678Z,74.35
2023-04-09T01:24:21.255Z,71.43
2023-04-09T01:27:04.080Z,72.18
2023-04-09T01:29:53.481Z,68.43
2023-04-09T01:32:22.143Z,63.78
2023-04-09T01:34:50.865Z,65.55
2023-04-09T01:37:19.493Z,73.13
2023-04-09T01:39:47.427Z,72.03
2023-04-09T01:42:17.693Z,68.20
2023-04-09T01:44:46.792Z,63.25
2023-04-09T01:47:14.197Z,68.93
2023-04-09T01:49:42.073Z,61.70
2023-04-09T01:52:10.142Z,68.65
2023-04-09T01:54:37.446Z,70.70
2023-04-09T01:57:04.741Z,61.78
2023-04-09T01:59:31.999Z,68.00
2023-04-09T02:02:04.809Z,65.40
2023-04-09T02:04:41.140Z,65.20
2023-04-09T02:07:30.790Z,59.72
2023-04-09T02:10:01.007Z,62.75
2023-04-09T02:12:31.852Z,71.38
2023-04-09T02:15:01.133Z,68.22
2023-04-09T02:17:28.412Z,69.70
2023-04-09T02:19:56.481Z,70.00
2023-04-09T02:22:24.037Z,67.72
2023-04-09T02:24:51.666Z,69.97
2023-04-09T02:27:18.873Z,67.93
2023-04-09T02:29:46.225Z,75.45
2023-04-09T02:32:13.369Z,74.22
2023-04-09T02:34:40.664Z,76.18
2023-04-09T02:37:08.094Z,72.50
2023-04-09T02:39:35.225Z,79.85
2023-04-09T02:42:02.979Z,80.53
2023-04-09T02:44:30.208Z,78.57
2023-04-09T02:46:57.852Z,70.60
2023-04-09T02:49:25.274Z,72.78
2023-04-09T02:51:52.533Z,71.45
2023-04-09T02:54:19.815Z,74.82
2023-04-09T02:56:47.015Z,83.40
2023-04-09T02:59:14.142Z,74.47
2023-04-09T03:01:41.933Z,66.78
2023-04-09T03:04:09.395Z,66.57
2023-04-09T03:06:36.577Z,71.57
2023-04-09T03:09:03.948Z,68.53
2023-04-09T03:11:31.393Z,71.55
2023-04-09T03:13:58.612Z,69.57
2023-04-09T03:16:26.566Z,65.95
2023-04-09T03:18:54.197Z,66.43
2023-04-09T03:21:21.635Z,64.43
2023-04-09T03:23:50.681Z,57.20
2023-04-09T03:26:17.837Z,59.50
2023-04-09T03:28:50.085Z,57.13
2023-04-09T03:31:17.882Z,63.00
2023-04-09T03:33:46.597Z,60.45
2023-04-09T03:36:14.248Z,66.88
2023-04-09T03:39:01.881Z,62.13
2023-04-09T03:41:35.495Z,61.85
2023-04-09T03:44:06.324Z,59.33
2023-04-09T03:46:44.312Z,71.40
2023-04-09T03:49:15.287Z,71.78
2023-04-09T03:51:44.767Z,59.95
2023-04-09T03:54:12.529Z,64.43
2023-04-09T03:56:40.924Z,61.65
2023-04-09T03:59:11.393Z,66.60
2023-04-09T04:01:41.792Z,62.78
2023-04-09T04:04:09.960Z,64.35
2023-04-09T04:06:53.956Z,65.15
2023-04-09T04:09:21.214Z,65.25
2023-04-09T04:11:58.930Z,71.63
2023-04-09T04:14:40.348Z,67.07
2023-04-09T04:17:18.413Z,77.07
2023-04-09T04:19:46.459Z,72.90
2023-04-09T04:22:14.544Z,73.10
2023-04-09T04:24:45.718Z,67.80
2023-04-09T04:27:18.644Z,69.45
2023-04-09T04:29:45.841Z,69.18
2023-04-09T04:32:31.475Z,62.40
2023-04-09T04:35:02.795Z,78.53
2023-04-09T04:37:30.634Z,72.82
2023-04-09T04:40:02.182Z,81.82
2023-04-09T04:42:31.776Z,66.13
2023-04-09T04:45:01.982Z,66.00
2023-04-09T04:47:46.699Z,69.13
2023-04-09T04:50:15.011Z,72.18
2023-04-09T04:52:54.247Z,63.28
2023-04-09T04:55:24.648Z,61.60
2023-04-09T04:57:52.799Z,64.82
2023-04-09T05:00:23.837Z,65.00
2023-04-09T05:02:51.529Z,69.47
2023-04-09T05:05:35.185Z,69.88
2023-04-09T05:08:02.459Z,70.90
2023-04-09T05:10:29.752Z,61.30
2023-04-09T05:12:58.538Z,73.70
2023-04-09T05:15:32.042Z,66.20
2023-04-09T05:17:59.644Z,58.67
2023-04-09T05:20:28.010Z,62.47
2023-04-09T05:23:04.689Z,60.00
2023-04-09T05:25:37.361Z,73.45
2023-04-09T05:28:04.768Z,76.03
2023-04-09T05:30:33.937Z,65.75
2023-04-09T05:33:03.938Z,69.25
2023-04-09T05:35:32.422Z,67.40
2023-04-09T05:38:00.504Z,59.95
2023-04-09T05:40:27.962Z,72.38
2023-04-09T05:42:55.314Z,70.28
2023-04-09T05:45:41.243Z,76.13
2023-04-09T05:48:10.306Z,65.10
2023-04-09T05:50:53.282Z,72.43
2023-04-09T05:53:24.107Z,72.10
2023-04-09T05:55:51.553Z,68.35
2023-04-09T05:58:22.369Z,69.53
2023-04-09T06:00:51.749Z,65.43
2023-04-09T06:03:19.586Z,68.75
2023-04-09T06:05:47.275Z,65.32
2023-04-09T06:08:14.467Z,64.97
2023-04-09T06:10:41.740Z,67.47
2023-04-09T06:13:10.310Z,62.03
2023-04-09T06:15:41.670Z,65.03
2023-04-09T06:18:09.088Z,64.82
2023-04-09T06:20:36.346Z,67.07
2023-04-09T06:23:03.620Z,60.50
2023-04-09T06:25:30.784Z,71.18
2023-04-09T06:27:57.979Z,74.63
2023-04-09T06:30:26.005Z,75.50
2023-04-09T06:32:54.980Z,69.13
2023-04-09T06:35:23.177Z,64.70
2023-04-09T06:37:50.515Z,63.25
2023-04-09T06:40:23.087Z,67.10
2023-04-09T06:42:50.639Z,69.50
2023-04-09T06:45:23.844Z,70.78
2023-04-09T06:47:51.494Z,70.78
2023-04-09T06:50:18.863Z,64.20
2023-04-09T06:52:46.399Z,71.32
2023-04-09T06:55:14.026Z,71.85
2023-04-09T06:57:41.689Z,73.68
2023-04-09T07:00:09.813Z,72.97
2023-04-09T07:02:37.581Z,75.78
2023-04-09T07:05:05.715Z,69.90
2023-04-09T07:07:32.952Z,78.70
2023-04-09T07:10:00.513Z,78.63
2023-04-09T07:12:35.491Z,78.00
2023-04-09T07:15:04.813Z,76.28
2023-04-09T07:17:32.626Z,74.07
2023-04-09T07:19:59.831Z,81.93
2023-04-09T07:22:28.680Z,83.25
2023-04-09T07:24:56.625Z,84.97
2023-04-09T07:27:28.587Z,82.65
2023-04-09T07:29:57.118Z,91.38
2023-04-09T07:32:25.502Z,83.38
2023-04-09T07:34:53.547Z,89.47
2023-04-09T07:37:21.162Z,93.10
2023-04-09T07:39:49.318Z,89.68
2023-04-09T07:42:16.542Z,86.10
2023-04-09T07:44:43.851Z,81.60
2023-04-09T07:47:12.934Z,83.10
2023-04-09T07:49:40.632Z,79.30
2023-04-09T07:52:08.363Z,80.95
2023-04-09T07:54:35.887Z,72.93
2023-04-09T07:57:03.367Z,75.35
2023-04-09T07:59:31.944Z,77.53
2023-04-09T08:01:59.802Z,69.47
2023-04-09T08:04:28.384Z,72.47
2023-04-09T08:06:55.736Z,69.45
2023-04-09T08:09:23.164Z,76.03
2023-04-09T08:11:50.527Z,67.40
2023-04-09T08:14:18.562Z,69.30
2023-04-09T08:16:47.821Z,63.15
2023-04-09T08:19:17.265Z,72.03
2023-04-09T08:21:45.045Z,67.38
2023-04-09T08:24:12.634Z,67.38
2023-04-09T08:26:41.111Z,65.60
2023-04-09T08:29:09.192Z,67.25
2023-04-09T08:31:37.467Z,64.43
2023-04-09T08:34:05.443Z,62.25
2023-04-09T08:36:34.796Z,62.33
2023-04-09T08:39:02.680Z,67.20
2023-04-09T08:41:30.653Z,64.28
2023-04-09T08:43:59.459Z,63.53
2023-04-09T08:46:27.848Z,70.43
2023-04-09T08:48:56.026Z,62.60
2023-04-09T08:51:24.398Z,65.68
2023-04-09T08:53:57.485Z,68.40
2023-04-09T08:56:26.348Z,62.15
2023-04-09T08:58:55.144Z,62.00
2023-04-09T09:01:24.962Z,58.47
2023-04-09T09:03:56.897Z,64.03
2023-04-09T09:06:28.045Z,59.83
2023-04-09T09:09:07.130Z,51.20
2023-04-09T09:11:36.227Z,59.47
2023-04-09T09:14:03.714Z,55.20
2023-04-09T09:16:33.098Z,57.20
2023-04-09T09:19:01.408Z,59.30
2023-04-09T09:21:30.115Z,56.97
2023-04-09T09:23:58.326Z,55.85
2023-04-09T09:26:30.791Z,52.80
2023-04-09T09:29:01.290Z,58.60
2023-04-09T09:31:28.762Z,63.58
2023-04-09T09:33:56.494Z,59.25
2023-04-09T09:36:34.544Z,54.35
2023-04-09T09:39:03.674Z,56.00
2023-04-09T09:41:31.464Z,43.25
2023-04-09T09:43:58.778Z,39.25
2023-04-09T09:46:26.796Z,38.53
2023-04-09T09:48:54.613Z,31.98
2023-04-09T09:51:29.372Z,37.42
2023-04-09T09:53:57.434Z,35.88
2023-04-09T09:56:39.558Z,34.10
2023-04-09T09:59:17.501Z,37.83
2023-04-09T10:01:47.610Z,35.72
2023-04-09T10:04:16.596Z,38.40
2023-04-09T10:06:45.402Z,40.70
2023-04-09T10:09:13.636Z,39.80
2023-04-09T10:11:45.714Z,34.05
2023-04-09T10:14:13.709Z,35.65
2023-04-09T10:16:42.033Z,37.45
2023-04-09T10:19:14.248Z,35.55
2023-04-09T10:22:21.461Z,37.28
2023-04-09T10:24:48.854Z,34.13
2023-04-09T10:27:17.509Z,32.33
2023-04-09T10:29:49.615Z,32.63
2023-04-09T10:32:26.793Z,29.95
2023-04-09T10:34:59.458Z,34.63
2023-04-09T10:37:28.749Z,31.05
2023-04-09T10:39:58.002Z,31.77
2023-04-09T10:42:35.741Z,33.05
2023-04-09T10:45:11.297Z,30.38
2023-04-09T10:47:43.369Z,29.38
2023-04-09T10:50:28.245Z,28.38
2023-04-09T10:52:58.374Z,23.17
2023-04-09T10:55:38.760Z,28.77
2023-04-09T10:58:09.749Z,29.77
2023-04-09T11:00:44.506Z,31.20
2023-04-09T11:03:22.608Z,24.73
2023-04-09T11:05:57.894Z,23.63
2023-04-09T11:08:29.220Z,26.55
2023-04-09T11:10:58.543Z,23.88
2023-04-09T11:13:25.767Z,23.48
2023-04-09T11:15:54.427Z,29.65
2023-04-09T11:18:26.420Z,23.55
2023-04-09T11:20:59.618Z,24.33
2023-04-09T11:23:27.622Z,27.42
2023-04-09T11:25:55.336Z,23.85
2023-04-09T11:28:24.084Z,26.17
2023-04-09T11:30:52.060Z,22.65
2023-04-09T11:33:20.507Z,20.95
2023-04-09T11:35:48.721Z,22.05
2023-04-09T11:38:16.226Z,25.90
2023-04-09T11:40:51.418Z,24.65
2023-04-09T11:43:20.939Z,25.95
2023-04-09T11:45:49.297Z,26.27
2023-04-09T11:48:18.635Z,29.25
2023-04-09T11:50:47.487Z,29.38
2023-04-09T11:53:22.448Z,23.10
2023-04-09T11:55:53.655Z,31.33
2023-04-09T11:58:25.754Z,27.67
2023-04-09T12:00:55.045Z,23.83
2023-04-09T12:03:33.431Z,24.15
2023-04-09T12:06:03.033Z,24.77
2023-04-09T12:08:31.452Z,25.73
2023-04-09T12:11:11.871Z,28.10
2023-04-09T12:13:44.547Z,22.33
2023-04-09T12:16:12.823Z,22.58
2023-04-09T12:18:41.185Z,21.27
2023-04-09T12:21:08.380Z,22.38
2023-04-09T12:23:35.665Z,21.85
2023-04-09T12:26:02.951Z,22.70
2023-04-09T12:28:30.950Z,21.23
2023-04-09T12:30:59.650Z,21.08
2023-04-09T12:33:27.383Z,22.35
2023-04-09T12:35:54.637Z,26.48
2023-04-09T12:38:21.770Z,22.30
2023-04-09T12:40:48.850Z,20.55
2023-04-09T12:43:16.085Z,20.13
2023-04-09T12:45:43.394Z,23.80
2023-04-09T12:48:10.757Z,19.45
2023-04-09T12:50:38.395Z,18.08
2023-04-09T12:53:05.799Z,17.40
2023-04-09T12:55:33.778Z,20.65
2023-04-09T12:58:02.567Z,19.30
2023-04-09T13:00:31.278Z,19.77
2023-04-09T13:02:58.560Z,21.80
2023-04-09T13:05:25.960Z,19.42
2023-04-09T13:07:53.356Z,20.92
2023-04-09T13:10:20.499Z,24.60
2023-04-09T13:12:47.621Z,20.17
2023-04-09T13:15:14.801Z,21.38
2023-04-09T13:17:42.007Z,18.15
2023-04-09T13:20:09.624Z,16.63
2023-04-09T13:22:36.984Z,16.58
2023-04-09T13:25:04.836Z,14.73
2023-04-09T13:27:32.431Z,13.38
2023-04-09T13:29:59.926Z,13.00
2023-04-09T13:32:27.209Z,13.93
2023-04-09T13:34:55.733Z,14.40
2023-04-09T13:37:22.969Z,17.48
2023-04-09T13:39:51.490Z,15.02
2023-04-09T13:42:19.143Z,14.95
2023-04-09T13:44:46.336Z,14.35
2023-04-09T13:47:15.173Z,16.67
2023-04-09T13:49:43.263Z,14.45
2023-04-09T13:52:11.332Z,15.95
2023-04-09T13:54:38.497Z,14.57
2023-04-09T13:57:05.849Z,14.90
2023-04-09T13:59:33.002Z,14.82
2023-04-09T14:02:00.495Z,18.77
2023-04-09T14:04:28.031Z,15.50
2023-04-09T14:06:55.323Z,16.42
2023-04-09T14:09:22.516Z,14.05
2023-04-09T14:11:49.751Z,16.48
2023-04-09T14:14:18.021Z,17.52
2023-04-09T14:16:47.075Z,15.55
2023-04-09T14:19:14.347Z,20.95
2023-04-09T14:21:41.640Z,18.85
2023-04-09T14:24:08.834Z,18.35
2023-04-09T14:26:36.100Z,21.42
2023-04-09T14:29:03.549Z,18.58
2023-04-09T14:31:33.278Z,18.23
2023-04-09T14:34:00.624Z,21.05
2023-04-09T14:36:27.803Z,25.70
2023-04-09T14:38:57.749Z,19.40
2023-04-09T14:41:25.817Z,20.80
2023-04-09T14:43:52.978Z,21.27
2023-04-09T14:46:20.392Z,20.23
2023-04-09T14:48:47.576Z,22.33
2023-04-09T14:51:14.811Z,24.20
2023-04-09T14:53:42.604Z,22.02
2023-04-09T14:56:09.928Z,24.73
2023-04-09T14:58:37.493Z,20.55
2023-04-09T15:01:05.146Z,19.58
2023-04-09T15:03:32.647Z,21.88
2023-04-09T15:05:59.996Z,20.27
2023-04-09T15:08:27.189Z,20.25
2023-04-09T15:10:54.409Z,22.50
2023-04-09T15:13:21.736Z,33.10
2023-04-09T15:15:48.900Z,25.52
2023-04-09T15:18:16.124Z,23.10
2023-04-09T15:20:43.686Z,21.38
2023-04-09T15:23:11.112Z,19.02
2023-04-09T15:25:38.993Z,21.13
2023-04-09T15:28:06.811Z,21.27
2023-04-09T15:30:35.573Z,21.13
2023-04-09T15:33:03.094Z,22.45
2023-04-09T15:35:30.425Z,20.00
2023-04-09T15:37:57.907Z,21.35
2023-04-09T15:40:25.429Z,17.27
2023-04-09T15:42:52.620Z,19.70
2023-04-09T15:45:19.992Z,20.65
2023-04-09T15:47:47.856Z,24.27
2023-04-09T15:50:15.224Z,25.45
2023-04-09T15:52:42.461Z,28.25
2023-04-09T15:55:10.054Z,25.45
2023-04-09T15:57:38.563Z,25.35
2023-04-09T16:00:10.743Z,22.67
2023-04-09T16:02:39.064Z,22.02
2023-04-09T16:05:07.291Z,26.50
2023-04-09T16:07:34.743Z,23.40
2023-04-09T16:10:02.509Z,22.70
2023-04-09T16:12:29.864Z,23.10
2023-04-09T16:14:57.207Z,24.02
2023-04-09T16:17:24.959Z,26.45
2023-04-09T16:19:52.416Z,30.02
2023-04-09T16:22:19.807Z,25.85
2023-04-09T16:24:47.023Z,24.73
2023-04-09T16:27:14.541Z,25.27
2023-04-09T16:29:41.702Z,29.27
2023-04-09T16:32:08.970Z,26.55
2023-04-09T16:34:36.202Z,25.95
2023-04-09T16:37:03.562Z,28.48
2023-04-09T16:39:30.949Z,24.15
2023-04-09T16:41:58.460Z,26.55
2023-04-09T16:44:26.068Z,27.60
2023-04-09T16:46:53.417Z,23.67
2023-04-09T16:49:20.815Z,28.33
2023-04-09T16:51:48.242Z,24.98
2023-04-09T16:54:15.424Z,23.35
2023-04-09T16:56:42.549Z,24.88
2023-04-09T16:59:09.780Z,32.30
2023-04-09T17:01:37.429Z,27.30
2023-04-09T17:04:05.200Z,23.58
2023-04-09T17:06:32.530Z,24.27
2023-04-09T17:08:59.952Z,27.80
2023-04-09T17:11:27.300Z,26.10
2023-04-09T17:13:54.432Z,25.67
2023-04-09T17:16:22.118Z,23.05
2023-04-09T17:18:49.628Z,25.38
2023-04-09T17:21:16.933Z,25.98
2023-04-09T17:23:44.880Z,29.00
2023-04-09T17:26:12.105Z,26.60
2023-04-09T17:28:39.478Z,25.92
2023-04-09T17:31:13.327Z,25.23
2023-04-09T17:33:41.891Z,26.30
2023-04-09T17:36:09.036Z,25.23
2023-04-09T17:38:36.213Z,21.27
2023-04-09T17:41:04.317Z,21.40
2023-04-09T17:43:33.044Z,23.30
2023-04-09T17:46:00.700Z,20.85
2023-04-09T17:48:30.122Z,24.35
2023-04-09T17:50:58.979Z,23.83
2023-04-09T17:53:27.119Z,27.35
2023-04-09T17:55:54.387Z,24.55
2023-04-09T17:58:21.524Z,26.23
2023-04-09T18:00:48.860Z,22.73
2023-04-09T18:03:16.635Z,25.27
2023-04-09T18:05:44.362Z,25.42
2023-04-09T18:08:12.480Z,24.98
2023-04-09T18:10:39.754Z,26.58
2023-04-09T18:13:11.030Z,25.05
2023-04-09T18:15:41.649Z,30.38
2023-04-09T18:18:08.903Z,32.60
2023-04-09T18:20:36.225Z,27.33
2023-04-09T18:23:03.420Z,32.30
2023-04-09T18:25:30.722Z,31.10
2023-04-09T18:27:58.126Z,28.20
2023-04-09T18:30:26.441Z,29.77
2023-04-09T18:32:53.774Z,32.45
2023-04-09T18:35:21.066Z,30.27
2023-04-09T18:37:48.447Z,30.60
2023-04-09T18:40:17.867Z,33.72
2023-04-09T18:42:45.260Z,39.67
2023-04-09T18:45:12.790Z,41.80
2023-04-09T18:47:40.768Z,37.33
2023-04-09T18:50:08.373Z,39.22
2023-04-09T18:52:39.001Z,40.53
2023-04-09T18:55:06.715Z,37.97
2023-04-09T18:57:34.017Z,41.90
2023-04-09T19:00:03.300Z,40.53
2023-04-09T19:02:31.011Z,41.35
2023-04-09T19:04:59.199Z,46.67
2023-04-09T19:07:26.455Z,42.95
2023-04-09T19:09:53.654Z,46.13
2023-04-09T19:12:21.268Z,43.42
2023-04-09T19:14:48.432Z,42.10
2023-04-09T19:17:15.581Z,43.42
2023-04-09T19:19:43.028Z,44.63
2023-04-09T19:22:10.245Z,44.67
2023-04-09T19:24:37.630Z,45.17
2023-04-09T19:27:09.772Z,44.53
2023-04-09T19:29:37.240Z,44.13
2023-04-09T19:32:05.068Z,51.33
2023-04-09T19:34:32.309Z,44.35
2023-04-09T19:36:59.603Z,45.20
2023-04-09T19:39:27.234Z,43.22
2023-04-09T19:41:54.387Z,42.53
2023-04-09T19:44:21.633Z,47.30
2023-04-09T19:46:49.080Z,45.65
2023-04-09T19:49:16.812Z,43.83
2023-04-09T19:51:43.918Z,42.60
2023-04-09T19:54:11.268Z,44.72
2023-04-09T19:56:38.469Z,46.63
2023-04-09T19:59:05.851Z,44.25
2023-04-09T20:01:33.970Z,47.22
2023-04-09T20:04:01.579Z,45.55
2023-04-09T20:06:30.824Z,48.75
2023-04-09T20:08:58.411Z,48.17
2023-04-09T20:11:25.889Z,45.78
2023-04-09T20:13:53.179Z,47.50
2023-04-09T20:16:20.399Z,50.65
2023-04-09T20:18:50.409Z,50.50
2023-04-09T20:21:18.865Z,51.03
2023-04-09T20:23:46.229Z,51.53
2023-04-09T20:26:13.752Z,54.90
2023-04-09T20:28:41.546Z,51.75
2023-04-09T20:31:08.906Z,51.60
2023-04-09T20:33:36.276Z,59.75
2023-04-09T20:36:03.844Z,56.22
2023-04-09T20:38:31.201Z,58.58
2023-04-09T20:40:58.420Z,68.63
2023-04-09T20:43:25.834Z,65.80
2023-04-09T20:45:53.654Z,70.10
2023-04-09T20:48:21.087Z,73.05
2023-04-09T20:50:48.251Z,69.60
2023-04-09T20:53:15.410Z,63.92
2023-04-09T20:55:42.617Z,64.97
2023-04-09T20:58:09.897Z,69.70
2023-04-09T21:00:37.322Z,65.65
2023-04-09T21:03:04.718Z,66.65
2023-04-09T21:05:32.766Z,68.07
2023-04-09T21:08:00.185Z,87.60
2023-04-09T21:10:27.501Z,80.38
2023-04-09T21:12:54.696Z,81.07
2023-04-09T21:15:21.840Z,85.22
2023-04-09T21:17:49.040Z,62.40
2023-04-09T21:20:16.852Z,64.20
2023-04-09T21:22:44.182Z,63.20
2023-04-09T21:25:13.303Z,57.33
2023-04-09T21:27:42.264Z,59.20
2023-04-09T21:30:09.832Z,56.75
2023-04-09T21:32:37.202Z,54.72
2023-04-09T21:35:05.766Z,51.33
2023-04-09T21:37:33.805Z,48.53
2023-04-09T21:40:00.930Z,47.67
2023-04-09T21:42:31.567Z,47.42
2023-04-09T21:44:58.856Z,50.22
2023-04-09T21:47:27.514Z,46.08
2023-04-09T21:49:54.898Z,47.53
2023-04-09T21:52:22.475Z,47.95
2023-04-09T21:54:49.579Z,48.65
2023-04-09T21:57:16.796Z,46.78
2023-04-09T21:59:43.929Z,50.47
2023-04-09T22:02:11.398Z,47.60
2023-04-09T22:04:42.602Z,47.75
2023-04-09T22:07:11.275Z,48.72
2023-04-09T22:09:38.755Z,48.80
2023-04-09T22:12:06.120Z,48.63
2023-04-09T22:14:33.300Z,49.30
2023-04-09T22:17:01.840Z,53.13
2023-04-09T22:19:30.949Z,54.28
2023-04-09T22:21:58.787Z,49.25
2023-04-09T22:24:30.389Z,50.30
2023-04-09T22:27:01.764Z,51.05
2023-04-09T22:29:29.465Z,46.53
2023-04-09T22:31:56.663Z,45.30
2023-04-09T22:34:23.930Z,44.40
2023-04-09T22:36:51.156Z,43.85
2023-04-09T22:39:18.743Z,45.60
2023-04-09T22:41:45.974Z,43.15
2023-04-09T22:44:13.178Z,44.40
2023-04-09T22:46:41.430Z,51.70
2023-04-09T22:49:09.135Z,44.42
2023-04-09T22:51:36.597Z,48.75
2023-04-09T22:54:04.050Z,44.95
2023-04-09T22:56:32.353Z,43.65
2023-04-09T22:59:00.118Z,46.30
2023-04-09T23:01:27.930Z,43.35
2023-04-09T23:03:56.041Z,62.83
2023-04-09T23:06:25.897Z,69.97
2023-04-09T23:08:53.293Z,75.28
2023-04-09T23:11:21.299Z,57.92
2023-04-09T23:13:48.591Z,53.50
2023-04-09T23:16:15.974Z,53.08
2023-04-09T23:18:43.752Z,53.80
2023-04-09T23:21:11.859Z,61.42
2023-04-09T23:23:39.256Z,52.58
2023-04-09T23:26:06.879Z,47.92
2023-04-09T23:28:34.157Z,45.95
2023-04-09T23:31:01.408Z,49.40
2023-04-09T23:33:28.611Z,46.95
2023-04-09T23:35:55.915Z,49.63
2023-04-09T23:38:23.426Z,47.88
2023-04-09T23:40:50.820Z,47.63
2023-04-09T23:43:18.000Z,43.58
2023-04-09T23:45:45.279Z,44.15
2023-04-09T23:48:12.701Z,48.50
2023-04-09T23:50:43.099Z,48.13
2023-04-09T23:53:10.992Z,45.83
2023-04-09T23:55:38.552Z,45.83
2023-04-09T23:58:05.787Z,46.28
